Weather History for Mammoth, CA

Change the Weather History Date:

Thursday, September 26, 2013

  Actual Average Record
Temperature  
Mean Temperature 40 °F -  
Max Temperature 50 °F 65 °F 82 °F (2010)
Min Temperature 30 °F 48 °F 30 °F (2000)
Degree Days  
Heating Degree Days 25    
Moisture  
Dew Point 22 °F    
Average Humidity 56    
Maximum Humidity 93    
Minimum Humidity 27    
Precipitation  
Precipitation 0.00 in - - ()
Sea Level Pressure  
Sea Level Pressure 29.93 in    
Wind  
Wind Speed 12 mph (WNW)    
Max Wind Speed 16 mph    
Max Gust Speed 23 mph    
Visibility 10 miles    
Events Snow    
Averages and records for this station are not official NWS values.
T = Trace of Precipitation, MM = Missing Value Source: NWS Daily Summary

Daily Weather History Graph

Daily Weather History Graph

Search for Another Location

Airport:

Trip Planner

Search our weather history database for the weather conditions in past years. The results will help you decide how hot, cold, wet, or windy it might be!

Date:

Astronomy

Sep. 26, 2013 Rise Set
Actual Time 6:46 AM PDT 6:45 PM PDT
Civil Twilight 6:20 AM PDT 7:11 PM PDT
Nautical Twilight 5:50 AM PDT 7:42 PM PDT
Astronomical Twilight 5:19 AM PDT 8:12 PM PDT
Moon 11:53 PM PDT (9/26) 1:36 PM PDT (9/26)
Length of Visible Light 12h 50m
Length of Day
11h 58m
Waning Gibbous, 53% of the Moon is Illuminated
Sep 26
Waning Gibbous
Sep 26
Last Quarter
Oct 4
New
Oct 11
First Quarter
Oct 18
Full

Hourly Weather History & Observations

Time (PDT) Temp. Windchill Dew Point Humidity Pressure Visibility Wind Dir Wind Speed Gust Speed Precip Events Conditions
12:15 AM 33.8 °F 23.5 °F 26.6 °F 75% 29.83 in 10.0 mi West 16.1 mph 19.6 mph N/A   Clear
12:35 AM 33.8 °F 23.9 °F 26.6 °F 75% 29.83 in 10.0 mi West 15.0 mph - N/A   Clear
12:55 AM 33.8 °F 24.3 °F 26.6 °F 75% 29.83 in 10.0 mi West 13.8 mph - N/A   Clear
1:15 AM 33.8 °F 23.5 °F 26.6 °F 75% 29.83 in 10.0 mi West 16.1 mph 23.0 mph N/A   Clear
1:35 AM 33.8 °F 23.5 °F 24.8 °F 70% 29.84 in 10.0 mi West 16.1 mph 20.7 mph N/A   Clear
1:55 AM 32.0 °F 21.6 °F 24.8 °F 75% 29.84 in 10.0 mi WNW 15.0 mph 18.4 mph N/A   Clear
2:15 AM 33.8 °F 23.5 °F 24.8 °F 70% 29.84 in 10.0 mi West 16.1 mph 21.9 mph N/A   Scattered Clouds
2:35 AM 33.8 °F 24.8 °F 24.8 °F 70% 29.84 in 10.0 mi West 12.7 mph - N/A   Overcast
2:55 AM 33.8 °F 25.3 °F 24.8 °F 70% 29.84 in 10.0 mi West 11.5 mph - N/A   Overcast
3:15 AM 33.8 °F 24.3 °F 23.0 °F 65% 29.84 in 10.0 mi West 13.8 mph - N/A   Overcast
3:35 AM 33.8 °F 25.3 °F 24.8 °F 70% 29.84 in 10.0 mi West 11.5 mph - N/A   Overcast
3:55 AM 32.0 °F 22.5 °F 24.8 °F 75% 29.84 in 10.0 mi West 12.7 mph - N/A   Overcast
4:15 AM 32.0 °F 22.1 °F 24.8 °F 75% 29.84 in 10.0 mi West 13.8 mph - N/A   Overcast
4:35 AM 32.0 °F 23.0 °F 24.8 °F 75% 29.85 in 10.0 mi WNW 11.5 mph - N/A   Mostly Cloudy
4:55 AM 32.0 °F 22.5 °F 24.8 °F 75% 29.85 in 10.0 mi West 12.7 mph - N/A   Scattered Clouds
5:15 AM 32.0 °F 23.0 °F 24.8 °F 75% 29.85 in 10.0 mi West 11.5 mph - N/A   Scattered Clouds
5:35 AM 32.0 °F 23.0 °F 24.8 °F 75% 29.85 in 10.0 mi West 11.5 mph - N/A   Mostly Cloudy
5:55 AM 32.0 °F 22.1 °F 24.8 °F 75% 29.86 in 10.0 mi West 13.8 mph - N/A   Overcast
6:15 AM 32.0 °F 21.6 °F 24.8 °F 75% 29.87 in 10.0 mi West 15.0 mph - N/A   Overcast
6:35 AM 32.0 °F 23.0 °F 26.6 °F 80% 29.87 in 10.0 mi West 11.5 mph - N/A Snow Light Snow
6:55 AM 32.0 °F 23.6 °F 24.8 °F 75% 29.88 in 10.0 mi West 10.4 mph - N/A   Overcast
7:15 AM 32.0 °F 24.2 °F 24.8 °F 75% 29.89 in 10.0 mi West 9.2 mph - N/A   Mostly Cloudy
7:35 AM 33.8 °F 27.0 °F 24.8 °F 70% 29.89 in 10.0 mi WNW 8.1 mph - N/A   Mostly Cloudy
7:55 AM 30.2 °F 22.6 °F 28.4 °F 93% 29.91 in 1.5 mi WNW 8.1 mph - N/A Snow Light Snow
8:15 AM 30.2 °F 22.6 °F 28.4 °F 93% 29.91 in 10.0 mi West 8.1 mph - N/A Snow Light Snow
8:35 AM 32.0 °F 22.5 °F 28.4 °F 87% 29.91 in 4.0 mi West 12.7 mph - N/A Snow Light Snow
8:55 AM 33.8 °F 24.8 °F 28.4 °F 81% 29.91 in 10.0 mi WSW 12.7 mph - N/A   Overcast
9:15 AM 35.6 °F 27.5 °F 28.4 °F 75% 29.92 in 10.0 mi West 11.5 mph - N/A   Overcast
9:35 AM 35.6 °F 27.1 °F 26.6 °F 70% 29.93 in 7.0 mi WNW 12.7 mph 18.4 mph N/A Snow Light Snow
9:55 AM 33.8 °F 26.4 °F 26.6 °F 75% 29.93 in 10.0 mi West 9.2 mph - N/A Snow Light Snow
10:15 AM 37.4 °F 30.3 °F 24.8 °F 60% 29.92 in 10.0 mi West 10.4 mph - N/A   Scattered Clouds
10:35 AM 39.2 °F 34.2 °F 21.2 °F 49% 29.92 in 10.0 mi West 6.9 mph - N/A   Scattered Clouds
10:55 AM 41.0 °F 32.8 °F 21.2 °F 45% 29.93 in 10.0 mi West 16.1 mph 19.6 mph N/A   Mostly Cloudy
11:15 AM 39.2 °F 35.9 °F 21.2 °F 49% 29.93 in 10.0 mi NNW 4.6 mph - N/A   Mostly Cloudy
11:35 AM 39.2 °F 33.0 °F 19.4 °F 45% 29.94 in 10.0 mi WNW 9.2 mph 16.1 mph N/A   Overcast
11:55 AM 42.8 °F 37.5 °F 17.6 °F 36% 29.93 in 10.0 mi NNW 9.2 mph - N/A   Mostly Cloudy
12:15 PM 44.6 °F 40.2 °F 15.8 °F 31% 29.93 in 10.0 mi North 8.1 mph 17.3 mph N/A   Scattered Clouds
12:35 PM 46.4 °F 42.9 °F 17.6 °F 32% 29.94 in 10.0 mi NNW 6.9 mph 17.3 mph N/A   Scattered Clouds
12:55 PM 46.4 °F 41.5 °F 17.6 °F 32% 29.94 in 10.0 mi NW 10.4 mph 17.3 mph N/A   Scattered Clouds
1:15 PM 46.4 °F 43.5 °F 19.4 °F 34% 29.93 in 10.0 mi NW 5.8 mph - N/A   Scattered Clouds
1:35 PM 46.4 °F 41.9 °F 19.4 °F 34% 29.92 in 10.0 mi NNW 9.2 mph - N/A   Scattered Clouds
1:55 PM 48.2 °F - 19.4 °F 32% 29.92 in 10.0 mi North 11.5 mph - N/A   Scattered Clouds
2:15 PM 50.0 °F - 19.4 °F 30% 29.92 in 10.0 mi NNW 12.7 mph 19.6 mph N/A   Scattered Clouds
2:35 PM 48.2 °F - 19.4 °F 32% 29.92 in 10.0 mi NW 6.9 mph 18.4 mph N/A   Scattered Clouds
2:55 PM 48.2 °F - 17.6 °F 30% 29.92 in 10.0 mi NW 10.4 mph - N/A   Scattered Clouds
3:15 PM 44.6 °F 42.2 °F 17.6 °F 34% 29.92 in 10.0 mi NNW 4.6 mph - N/A   Scattered Clouds
3:35 PM 46.4 °F 42.4 °F 15.8 °F 29% 29.92 in 10.0 mi NNW 8.1 mph - N/A   Mostly Cloudy
3:55 PM 44.6 °F 39.2 °F 15.8 °F 31% 29.92 in 10.0 mi NNW 10.4 mph - N/A   Scattered Clouds
4:15 PM 44.6 °F 38.4 °F 15.8 °F 31% 29.93 in 10.0 mi WNW 12.7 mph 21.9 mph N/A   Clear
4:35 PM 44.6 °F 38.1 °F 17.6 °F 34% 29.93 in 10.0 mi North 13.8 mph 18.4 mph N/A   Scattered Clouds
4:55 PM 48.2 °F - 17.6 °F 30% 29.93 in 10.0 mi NNW 13.8 mph 20.7 mph N/A   Clear
5:15 PM 48.2 °F - 15.8 °F 27% 29.93 in 10.0 mi WNW 12.7 mph 23.0 mph N/A   Clear
5:35 PM 46.4 °F 41.1 °F 17.6 °F 32% 29.94 in 10.0 mi WNW 11.5 mph 20.7 mph N/A   Clear
5:55 PM 44.6 °F 38.8 °F 17.6 °F 34% 29.95 in 10.0 mi WNW 11.5 mph - N/A   Scattered Clouds
6:15 PM 42.8 °F 36.6 °F 17.6 °F 36% 29.96 in 10.0 mi NNW 11.5 mph 18.4 mph N/A   Mostly Cloudy
6:35 PM 42.8 °F 37.5 °F 19.4 °F 39% 29.97 in 10.0 mi NNW 9.2 mph - N/A   Overcast
6:55 PM 41.0 °F 34.3 °F 17.6 °F 39% 29.98 in 10.0 mi North 11.5 mph - N/A   Overcast
7:15 PM 41.0 °F 33.5 °F 19.4 °F 42% 29.99 in 10.0 mi North 13.8 mph 17.3 mph N/A   Overcast
7:35 PM 39.2 °F 33.6 °F 19.4 °F 45% 30.01 in 10.0 mi NNW 8.1 mph - N/A   Overcast
7:55 PM 39.2 °F 32.5 °F 19.4 °F 45% 30.03 in 10.0 mi NNW 10.4 mph - N/A   Overcast
8:15 PM 39.2 °F 33.0 °F 19.4 °F 45% 30.04 in 10.0 mi NNW 9.2 mph - N/A   Overcast
8:35 PM 39.2 °F 34.2 °F 19.4 °F 45% 30.05 in 10.0 mi WNW 6.9 mph - N/A   Overcast
8:55 PM 39.2 °F 33.6 °F 19.4 °F 45% 30.06 in 10.0 mi WNW 8.1 mph - N/A   Overcast
9:15 PM 37.4 °F 32.1 °F 19.4 °F 48% 30.07 in 10.0 mi NW 6.9 mph - N/A   Mostly Cloudy
9:35 PM 35.6 °F 28.6 °F 19.4 °F 52% 30.08 in 10.0 mi West 9.2 mph - N/A   Scattered Clouds
9:55 PM 35.6 °F 28.0 °F 21.2 °F 56% 30.10 in 10.0 mi WNW 10.4 mph - N/A   Scattered Clouds
10:15 PM 35.6 °F 29.2 °F 21.2 °F 56% 30.10 in 10.0 mi West 8.1 mph - N/A   Scattered Clouds
10:35 PM 35.6 °F 30.7 °F 23.0 °F 60% 30.11 in 10.0 mi West 5.8 mph - N/A   Clear
10:55 PM 35.6 °F 29.2 °F 23.0 °F 60% 30.11 in 10.0 mi West 8.1 mph - N/A   Clear
11:15 PM 33.8 °F 27.7 °F 23.0 °F 65% 30.11 in 10.0 mi West 6.9 mph - N/A   Clear
11:35 PM 32.0 °F 27.5 °F 21.2 °F 64% 30.12 in 10.0 mi NNW 4.6 mph - N/A   Scattered Clouds
11:55 PM 32.0 °F 25.6 °F 21.2 °F 64% 30.12 in 10.0 mi NW 6.9 mph - N/A   Mostly Cloudy